sensor_id;sensor_type;location;lat;lon;timestamp;P1;durP1;ratioP1;P2;durP2;ratioP2
5813;SDS011;2933;52.302;8.134;2023-09-18T00:04:59;3.83;;;3.63;;
5813;SDS011;2933;52.302;8.134;2023-09-18T00:10:02;6.20;;;4.30;;
5813;SDS011;2933;52.302;8.134;2023-09-18T00:15:04;5.83;;;4.10;;
5813;SDS011;2933;52.302;8.134;2023-09-18T00:20:08;7.10;;;4.70;;
5813;SDS011;2933;52.302;8.134;2023-09-18T00:25:12;4.60;;;4.20;;
5813;SDS011;2933;52.302;8.134;2023-09-18T00:30:15;4.73;;;3.60;;
5813;SDS011;2933;52.302;8.134;2023-09-18T00:35:17;4.00;;;3.70;;
5813;SDS011;2933;52.302;8.134;2023-09-18T00:40:20;7.23;;;3.77;;
5813;SDS011;2933;52.302;8.134;2023-09-18T00:45:21;4.50;;;4.20;;
5813;SDS011;2933;52.302;8.134;2023-09-18T00:50:23;6.03;;;4.30;;
5813;SDS011;2933;52.302;8.134;2023-09-18T00:55:26;4.83;;;4.03;;
5813;SDS011;2933;52.302;8.134;2023-09-18T01:00:28;4.07;;;3.57;;
5813;SDS011;2933;52.302;8.134;2023-09-18T01:05:30;7.20;;;4.73;;
5813;SDS011;2933;52.302;8.134;2023-09-18T01:10:35;4.00;;;3.70;;
5813;SDS011;2933;52.302;8.134;2023-09-18T01:15:42;4.70;;;4.40;;
5813;SDS011;2933;52.302;8.134;2023-09-18T01:20:49;4.63;;;4.07;;
5813;SDS011;2933;52.302;8.134;2023-09-18T01:25:52;5.17;;;4.30;;
5813;SDS011;2933;52.302;8.134;2023-09-18T01:30:53;5.00;;;4.20;;
5813;SDS011;2933;52.302;8.134;2023-09-18T01:35:55;4.17;;;3.97;;
5813;SDS011;2933;52.302;8.134;2023-09-18T01:40:58;5.07;;;4.47;;
5813;SDS011;2933;52.302;8.134;2023-09-18T01:46:01;6.03;;;4.13;;
5813;SDS011;2933;52.302;8.134;2023-09-18T01:51:03;5.00;;;4.50;;
5813;SDS011;2933;52.302;8.134;2023-09-18T01:56:06;7.93;;;4.43;;
5813;SDS011;2933;52.302;8.134;2023-09-18T02:01:08;5.10;;;4.70;;
5813;SDS011;2933;52.302;8.134;2023-09-18T02:06:09;7.80;;;4.53;;
5813;SDS011;2933;52.302;8.134;2023-09-18T02:11:13;6.03;;;4.40;;
5813;SDS011;2933;52.302;8.134;2023-09-18T02:16:14;9.53;;;4.77;;
5813;SDS011;2933;52.302;8.134;2023-09-18T02:21:18;5.63;;;4.97;;
5813;SDS011;2933;52.302;8.134;2023-09-18T02:26:22;7.30;;;4.60;;
5813;SDS011;2933;52.302;8.134;2023-09-18T02:31:25;7.60;;;4.30;;
5813;SDS011;2933;52.302;8.134;2023-09-18T02:36:27;6.90;;;5.33;;
5813;SDS011;2933;52.302;8.134;2023-09-18T02:41:29;8.70;;;4.53;;
5813;SDS011;2933;52.302;8.134;2023-09-18T02:46:31;18.33;;;5.40;;
5813;SDS011;2933;52.302;8.134;2023-09-18T02:51:33;8.07;;;5.27;;
5813;SDS011;2933;52.302;8.134;2023-09-18T02:56:36;5.73;;;5.23;;
5813;SDS011;2933;52.302;8.134;2023-09-18T03:01:38;10.90;;;5.77;;
5813;SDS011;2933;52.302;8.134;2023-09-18T03:06:39;6.40;;;5.40;;
5813;SDS011;2933;52.302;8.134;2023-09-18T03:11:42;6.40;;;5.47;;
5813;SDS011;2933;52.302;8.134;2023-09-18T03:16:44;7.17;;;5.57;;
5813;SDS011;2933;52.302;8.134;2023-09-18T03:21:46;5.63;;;4.60;;
5813;SDS011;2933;52.302;8.134;2023-09-18T03:26:49;5.67;;;5.07;;
5813;SDS011;2933;52.302;8.134;2023-09-18T03:31:50;7.07;;;5.10;;
5813;SDS011;2933;52.302;8.134;2023-09-18T03:36:52;5.83;;;5.10;;
5813;SDS011;2933;52.302;8.134;2023-09-18T03:41:55;5.30;;;4.90;;
5813;SDS011;2933;52.302;8.134;2023-09-18T03:46:56;7.43;;;5.03;;
5813;SDS011;2933;52.302;8.134;2023-09-18T03:51:58;4.90;;;4.50;;
5813;SDS011;2933;52.302;8.134;2023-09-18T03:57:01;5.43;;;4.90;;
5813;SDS011;2933;52.302;8.134;2023-09-18T04:02:02;5.10;;;4.70;;
5813;SDS011;2933;52.302;8.134;2023-09-18T04:07:05;6.57;;;5.10;;
5813;SDS011;2933;52.302;8.134;2023-09-18T04:12:10;5.60;;;5.03;;
5813;SDS011;2933;52.302;8.134;2023-09-18T04:17:11;5.23;;;4.57;;
5813;SDS011;2933;52.302;8.134;2023-09-18T04:22:13;5.10;;;4.73;;
5813;SDS011;2933;52.302;8.134;2023-09-18T04:27:16;5.43;;;4.97;;
5813;SDS011;2933;52.302;8.134;2023-09-18T04:32:18;9.13;;;5.30;;
5813;SDS011;2933;52.302;8.134;2023-09-18T04:37:19;7.77;;;4.80;;
5813;SDS011;2933;52.302;8.134;2023-09-18T04:42:22;7.70;;;4.83;;
5813;SDS011;2933;52.302;8.134;2023-09-18T04:47:25;5.17;;;4.63;;
5813;SDS011;2933;52.302;8.134;2023-09-18T04:52:26;4.87;;;4.47;;
5813;SDS011;2933;52.302;8.134;2023-09-18T04:57:29;4.70;;;4.30;;
5813;SDS011;2933;52.302;8.134;2023-09-18T05:02:30;7.43;;;5.07;;
5813;SDS011;2933;52.302;8.134;2023-09-18T05:07:32;5.90;;;4.67;;
5813;SDS011;2933;52.302;8.134;2023-09-18T05:12:35;5.70;;;4.70;;
5813;SDS011;2933;52.302;8.134;2023-09-18T05:17:40;5.47;;;4.73;;
5813;SDS011;2933;52.302;8.134;2023-09-18T05:22:43;8.60;;;4.83;;
5813;SDS011;2933;52.302;8.134;2023-09-18T05:27:46;6.13;;;4.70;;
5813;SDS011;2933;52.302;8.134;2023-09-18T05:32:49;10.87;;;4.77;;
5813;SDS011;2933;52.302;8.134;2023-09-18T05:37:51;5.67;;;4.73;;
5813;SDS011;2933;52.302;8.134;2023-09-18T05:42:56;5.70;;;3.77;;
5813;SDS011;2933;52.302;8.134;2023-09-18T05:47:58;6.10;;;5.50;;
5813;SDS011;2933;52.302;8.134;2023-09-18T05:53:04;6.20;;;4.63;;
5813;SDS011;2933;52.302;8.134;2023-09-18T05:58:07;4.77;;;4.37;;
5813;SDS011;2933;52.302;8.134;2023-09-18T06:03:08;9.80;;;4.50;;
5813;SDS011;2933;52.302;8.134;2023-09-18T06:08:12;5.60;;;4.73;;
5813;SDS011;2933;52.302;8.134;2023-09-18T06:13:15;5.67;;;4.57;;
5813;SDS011;2933;52.302;8.134;2023-09-18T06:18:16;7.43;;;3.93;;
5813;SDS011;2933;52.302;8.134;2023-09-18T06:23:19;5.40;;;4.13;;
5813;SDS011;2933;52.302;8.134;2023-09-18T06:28:22;4.60;;;4.20;;
5813;SDS011;2933;52.302;8.134;2023-09-18T06:33:23;7.77;;;4.57;;
5813;SDS011;2933;52.302;8.134;2023-09-18T06:38:25;8.83;;;4.60;;
5813;SDS011;2933;52.302;8.134;2023-09-18T06:43:28;6.33;;;4.43;;
5813;SDS011;2933;52.302;8.134;2023-09-18T06:48:29;7.80;;;4.40;;
5813;SDS011;2933;52.302;8.134;2023-09-18T06:53:32;4.27;;;3.90;;
5813;SDS011;2933;52.302;8.134;2023-09-18T06:58:35;3.30;;;3.07;;
5813;SDS011;2933;52.302;8.134;2023-09-18T07:03:37;8.07;;;3.40;;
5813;SDS011;2933;52.302;8.134;2023-09-18T07:08:40;4.33;;;3.50;;
5813;SDS011;2933;52.302;8.134;2023-09-18T07:13:44;8.53;;;3.50;;
5813;SDS011;2933;52.302;8.134;2023-09-18T07:18:46;6.07;;;3.30;;
5813;SDS011;2933;52.302;8.134;2023-09-18T07:23:47;5.10;;;2.77;;
5813;SDS011;2933;52.302;8.134;2023-09-18T07:28:50;6.93;;;3.40;;
5813;SDS011;2933;52.302;8.134;2023-09-18T07:33:51;3.57;;;2.50;;
5813;SDS011;2933;52.302;8.134;2023-09-18T07:38:53;3.17;;;2.57;;
5813;SDS011;2933;52.302;8.134;2023-09-18T07:43:58;6.47;;;3.03;;
5813;SDS011;2933;52.302;8.134;2023-09-18T07:48:59;6.17;;;2.90;;
5813;SDS011;2933;52.302;8.134;2023-09-18T07:54:01;6.77;;;2.43;;
5813;SDS011;2933;52.302;8.134;2023-09-18T07:59:04;9.43;;;2.43;;
5813;SDS011;2933;52.302;8.134;2023-09-18T08:04:06;9.00;;;3.47;;
5813;SDS011;2933;52.302;8.134;2023-09-18T08:09:07;7.67;;;2.50;;
5813;SDS011;2933;52.302;8.134;2023-09-18T08:14:14;5.10;;;2.13;;
5813;SDS011;2933;52.302;8.134;2023-09-18T08:19:17;3.63;;;2.13;;
5813;SDS011;2933;52.302;8.134;2023-09-18T08:24:19;4.30;;;2.23;;
5813;SDS011;2933;52.302;8.134;2023-09-18T08:29:23;2.40;;;2.20;;
5813;SDS011;2933;52.302;8.134;2023-09-18T08:34:24;6.20;;;2.43;;
5813;SDS011;2933;52.302;8.134;2023-09-18T08:39:26;3.13;;;1.87;;
5813;SDS011;2933;52.302;8.134;2023-09-18T08:44:29;10.83;;;2.77;;
5813;SDS011;2933;52.302;8.134;2023-09-18T08:49:31;4.40;;;2.20;;
5813;SDS011;2933;52.302;8.134;2023-09-18T08:54:35;3.67;;;1.73;;
5813;SDS011;2933;52.302;8.134;2023-09-18T08:59:38;3.37;;;1.57;;
5813;SDS011;2933;52.302;8.134;2023-09-18T09:04:41;4.40;;;1.97;;
5813;SDS011;2933;52.302;8.134;2023-09-18T09:09:42;4.30;;;1.97;;
5813;SDS011;2933;52.302;8.134;2023-09-18T09:14:51;4.47;;;1.73;;
5813;SDS011;2933;52.302;8.134;2023-09-18T09:20:09;5.30;;;2.30;;
5813;SDS011;2933;52.302;8.134;2023-09-18T09:25:21;5.00;;;1.93;;
5813;SDS011;2933;52.302;8.134;2023-09-18T09:30:26;4.73;;;1.97;;
5813;SDS011;2933;52.302;8.134;2023-09-18T09:35:29;8.03;;;2.10;;
5813;SDS011;2933;52.302;8.134;2023-09-18T09:40:33;3.17;;;1.80;;
5813;SDS011;2933;52.302;8.134;2023-09-18T09:45:36;9.63;;;2.17;;
5813;SDS011;2933;52.302;8.134;2023-09-18T09:50:43;4.47;;;2.00;;
5813;SDS011;2933;52.302;8.134;2023-09-18T09:55:51;5.90;;;1.90;;
5813;SDS011;2933;52.302;8.134;2023-09-18T10:00:57;2.77;;;1.70;;
5813;SDS011;2933;52.302;8.134;2023-09-18T10:06:05;1.57;;;1.50;;
5813;SDS011;2933;52.302;8.134;2023-09-18T10:11:10;4.20;;;2.37;;
5813;SDS011;2933;52.302;8.134;2023-09-18T10:16:18;4.30;;;2.23;;
5813;SDS011;2933;52.302;8.134;2023-09-18T10:21:22;4.27;;;2.43;;
5813;SDS011;2933;52.302;8.134;2023-09-18T10:26:32;2.63;;;2.33;;
5813;SDS011;2933;52.302;8.134;2023-09-18T10:31:40;4.57;;;2.50;;
5813;SDS011;2933;52.302;8.134;2023-09-18T10:36:44;3.50;;;1.80;;
5813;SDS011;2933;52.302;8.134;2023-09-18T10:41:49;1.90;;;1.80;;
5813;SDS011;2933;52.302;8.134;2023-09-18T10:46:54;3.80;;;1.70;;
5813;SDS011;2933;52.302;8.134;2023-09-18T10:51:56;3.63;;;1.87;;
5813;SDS011;2933;52.302;8.134;2023-09-18T10:56:59;2.60;;;2.00;;
5813;SDS011;2933;52.302;8.134;2023-09-18T11:02:03;1.70;;;1.60;;
5813;SDS011;2933;52.302;8.134;2023-09-18T11:07:06;2.10;;;1.90;;
5813;SDS011;2933;52.302;8.134;2023-09-18T11:12:08;5.23;;;1.93;;
5813;SDS011;2933;52.302;8.134;2023-09-18T11:17:31;2.13;;;1.87;;
5813;SDS011;2933;52.302;8.134;2023-09-18T11:22:34;2.60;;;1.50;;
5813;SDS011;2933;52.302;8.134;2023-09-18T11:27:43;3.23;;;1.50;;
5813;SDS011;2933;52.302;8.134;2023-09-18T11:32:56;2.00;;;1.47;;
5813;SDS011;2933;52.302;8.134;2023-09-18T11:38:05;2.37;;;1.40;;
5813;SDS011;2933;52.302;8.134;2023-09-18T11:43:21;4.07;;;1.60;;
5813;SDS011;2933;52.302;8.134;2023-09-18T11:48:30;1.90;;;1.50;;
5813;SDS011;2933;52.302;8.134;2023-09-18T11:53:34;1.70;;;1.60;;
5813;SDS011;2933;52.302;8.134;2023-09-18T11:58:46;4.47;;;1.50;;
5813;SDS011;2933;52.302;8.134;2023-09-18T12:03:54;1.70;;;1.53;;
5813;SDS011;2933;52.302;8.134;2023-09-18T12:08:55;1.83;;;1.20;;
5813;SDS011;2933;52.302;8.134;2023-09-18T12:13:57;3.90;;;1.30;;
5813;SDS011;2933;52.302;8.134;2023-09-18T12:19:00;1.07;;;1.07;;
5813;SDS011;2933;52.302;8.134;2023-09-18T12:24:02;3.03;;;1.00;;
5813;SDS011;2933;52.302;8.134;2023-09-18T12:29:05;3.67;;;1.40;;
5813;SDS011;2933;52.302;8.134;2023-09-18T12:34:14;1.43;;;1.10;;
5813;SDS011;2933;52.302;8.134;2023-09-18T12:39:17;6.20;;;1.77;;
5813;SDS011;2933;52.302;8.134;2023-09-18T12:44:20;1.00;;;1.00;;
5813;SDS011;2933;52.302;8.134;2023-09-18T12:49:23;3.50;;;1.40;;
5813;SDS011;2933;52.302;8.134;2023-09-18T12:54:41;2.27;;;1.07;;
5813;SDS011;2933;52.302;8.134;2023-09-18T12:59:45;2.80;;;1.20;;
5813;SDS011;2933;52.302;8.134;2023-09-18T13:04:52;1.67;;;1.23;;
5813;SDS011;2933;52.302;8.134;2023-09-18T13:09:58;1.90;;;1.67;;
5813;SDS011;2933;52.302;8.134;2023-09-18T13:15:01;1.57;;;1.40;;
5813;SDS011;2933;52.302;8.134;2023-09-18T13:20:13;1.33;;;1.13;;
5813;SDS011;2933;52.302;8.134;2023-09-18T13:25:18;1.27;;;1.17;;
5813;SDS011;2933;52.302;8.134;2023-09-18T13:30:20;1.40;;;1.00;;
5813;SDS011;2933;52.302;8.134;2023-09-18T13:35:24;1.30;;;1.20;;
5813;SDS011;2933;52.302;8.134;2023-09-18T13:40:25;1.83;;;1.40;;
5813;SDS011;2933;52.302;8.134;2023-09-18T13:45:27;1.97;;;1.50;;
5813;SDS011;2933;52.302;8.134;2023-09-18T13:50:30;1.30;;;1.20;;
5813;SDS011;2933;52.302;8.134;2023-09-18T13:55:32;4.20;;;1.20;;
5813;SDS011;2933;52.302;8.134;2023-09-18T14:00:34;2.20;;;1.20;;
5813;SDS011;2933;52.302;8.134;2023-09-18T14:05:37;3.83;;;1.23;;
5813;SDS011;2933;52.302;8.134;2023-09-18T14:10:39;2.13;;;1.60;;
5813;SDS011;2933;52.302;8.134;2023-09-18T14:15:42;3.50;;;1.40;;
5813;SDS011;2933;52.302;8.134;2023-09-18T14:20:46;1.97;;;1.33;;
5813;SDS011;2933;52.302;8.134;2023-09-18T14:25:47;2.07;;;1.40;;
5813;SDS011;2933;52.302;8.134;2023-09-18T14:30:50;1.93;;;1.40;;
5813;SDS011;2933;52.302;8.134;2023-09-18T14:35:53;1.60;;;1.50;;
5813;SDS011;2933;52.302;8.134;2023-09-18T14:40:55;1.93;;;1.33;;
5813;SDS011;2933;52.302;8.134;2023-09-18T14:46:01;2.23;;;1.80;;
5813;SDS011;2933;52.302;8.134;2023-09-18T14:51:04;1.50;;;1.40;;
5813;SDS011;2933;52.302;8.134;2023-09-18T14:56:07;1.40;;;1.40;;
5813;SDS011;2933;52.302;8.134;2023-09-18T15:01:08;2.10;;;1.20;;
5813;SDS011;2933;52.302;8.134;2023-09-18T15:06:12;1.43;;;1.33;;
5813;SDS011;2933;52.302;8.134;2023-09-18T15:11:14;4.60;;;1.20;;
5813;SDS011;2933;52.302;8.134;2023-09-18T15:16:17;3.33;;;1.60;;
5813;SDS011;2933;52.302;8.134;2023-09-18T15:21:20;1.27;;;1.17;;
5813;SDS011;2933;52.302;8.134;2023-09-18T15:26:21;1.60;;;1.50;;
5813;SDS011;2933;52.302;8.134;2023-09-18T15:31:23;2.90;;;1.60;;
5813;SDS011;2933;52.302;8.134;2023-09-18T15:36:26;4.33;;;1.20;;
5813;SDS011;2933;52.302;8.134;2023-09-18T15:41:28;1.80;;;1.70;;
5813;SDS011;2933;52.302;8.134;2023-09-18T15:46:29;3.10;;;1.73;;
5813;SDS011;2933;52.302;8.134;2023-09-18T15:51:32;2.00;;;1.43;;
5813;SDS011;2933;52.302;8.134;2023-09-18T15:56:34;2.80;;;1.40;;
5813;SDS011;2933;52.302;8.134;2023-09-18T16:01:36;3.27;;;1.20;;
5813;SDS011;2933;52.302;8.134;2023-09-18T16:06:41;2.70;;;1.30;;
5813;SDS011;2933;52.302;8.134;2023-09-18T16:11:43;3.17;;;1.80;;
5813;SDS011;2933;52.302;8.134;2023-09-18T16:16:44;1.13;;;1.07;;
5813;SDS011;2933;52.302;8.134;2023-09-18T16:21:48;3.07;;;1.40;;
5813;SDS011;2933;52.302;8.134;2023-09-18T16:26:49;3.47;;;1.50;;
5813;SDS011;2933;52.302;8.134;2023-09-18T16:31:51;1.40;;;1.30;;
5813;SDS011;2933;52.302;8.134;2023-09-18T16:36:54;8.33;;;1.30;;
5813;SDS011;2933;52.302;8.134;2023-09-18T16:41:56;5.30;;;1.33;;
5813;SDS011;2933;52.302;8.134;2023-09-18T16:46:57;2.67;;;1.33;;
5813;SDS011;2933;52.302;8.134;2023-09-18T16:52:00;4.30;;;3.43;;
5813;SDS011;2933;52.302;8.134;2023-09-18T16:57:04;1.50;;;1.40;;
5813;SDS011;2933;52.302;8.134;2023-09-18T17:02:06;3.50;;;1.80;;
5813;SDS011;2933;52.302;8.134;2023-09-18T17:07:09;2.87;;;1.93;;
5813;SDS011;2933;52.302;8.134;2023-09-18T17:12:11;4.63;;;1.87;;
5813;SDS011;2933;52.302;8.134;2023-09-18T17:17:13;1.53;;;1.43;;
5813;SDS011;2933;52.302;8.134;2023-09-18T17:22:15;1.00;;;1.00;;
5813;SDS011;2933;52.302;8.134;2023-09-18T17:27:18;3.63;;;1.50;;
5813;SDS011;2933;52.302;8.134;2023-09-18T17:32:19;1.73;;;1.43;;
5813;SDS011;2933;52.302;8.134;2023-09-18T17:37:22;7.80;;;1.17;;
5813;SDS011;2933;52.302;8.134;2023-09-18T17:42:26;2.20;;;1.40;;
5813;SDS011;2933;52.302;8.134;2023-09-18T17:47:28;2.70;;;1.70;;
5813;SDS011;2933;52.302;8.134;2023-09-18T17:52:31;2.07;;;1.83;;
5813;SDS011;2933;52.302;8.134;2023-09-18T17:57:33;2.97;;;1.63;;
5813;SDS011;2933;52.302;8.134;2023-09-18T18:02:37;1.63;;;1.50;;
5813;SDS011;2933;52.302;8.134;2023-09-18T18:07:41;2.50;;;1.50;;
5813;SDS011;2933;52.302;8.134;2023-09-18T18:12:42;1.67;;;1.53;;
5813;SDS011;2933;52.302;8.134;2023-09-18T18:17:44;1.90;;;1.37;;
5813;SDS011;2933;52.302;8.134;2023-09-18T18:22:47;5.10;;;1.20;;
5813;SDS011;2933;52.302;8.134;2023-09-18T18:27:48;2.40;;;0.80;;
5813;SDS011;2933;52.302;8.134;2023-09-18T18:32:51;1.63;;;0.70;;
5813;SDS011;2933;52.302;8.134;2023-09-18T18:37:54;0.70;;;0.70;;
5813;SDS011;2933;52.302;8.134;2023-09-18T18:42:56;0.93;;;0.70;;
5813;SDS011;2933;52.302;8.134;2023-09-18T18:47:57;0.73;;;0.60;;
5813;SDS011;2933;52.302;8.134;2023-09-18T18:53:02;0.50;;;0.50;;
5813;SDS011;2933;52.302;8.134;2023-09-18T18:58:04;1.70;;;0.57;;
5813;SDS011;2933;52.302;8.134;2023-09-18T19:03:07;0.70;;;0.70;;
5813;SDS011;2933;52.302;8.134;2023-09-18T19:08:11;0.90;;;0.90;;
5813;SDS011;2933;52.302;8.134;2023-09-18T19:13:12;1.63;;;1.10;;
5813;SDS011;2933;52.302;8.134;2023-09-18T19:18:14;0.73;;;0.73;;
5813;SDS011;2933;52.302;8.134;2023-09-18T19:23:18;1.10;;;0.70;;
5813;SDS011;2933;52.302;8.134;2023-09-18T19:28:19;1.00;;;0.80;;
5813;SDS011;2933;52.302;8.134;2023-09-18T19:33:21;0.63;;;0.63;;
5813;SDS011;2933;52.302;8.134;2023-09-18T19:38:24;1.40;;;0.87;;
5813;SDS011;2933;52.302;8.134;2023-09-18T19:43:26;1.37;;;0.60;;
5813;SDS011;2933;52.302;8.134;2023-09-18T19:48:28;1.47;;;0.73;;
5813;SDS011;2933;52.302;8.134;2023-09-18T19:53:32;0.80;;;0.80;;
5813;SDS011;2933;52.302;8.134;2023-09-18T19:58:34;0.80;;;0.80;;
5813;SDS011;2933;52.302;8.134;2023-09-18T20:03:35;9.43;;;1.00;;
5813;SDS011;2933;52.302;8.134;2023-09-18T20:08:38;1.40;;;1.30;;
5813;SDS011;2933;52.302;8.134;2023-09-18T20:13:41;3.90;;;1.20;;
5813;SDS011;2933;52.302;8.134;2023-09-18T20:18:42;1.60;;;1.30;;
5813;SDS011;2933;52.302;8.134;2023-09-18T20:23:45;1.73;;;1.00;;
5813;SDS011;2933;52.302;8.134;2023-09-18T20:28:47;1.23;;;1.13;;
5813;SDS011;2933;52.302;8.134;2023-09-18T20:33:49;1.20;;;1.10;;
5813;SDS011;2933;52.302;8.134;2023-09-18T20:38:52;3.73;;;1.10;;
5813;SDS011;2933;52.302;8.134;2023-09-18T20:43:54;2.80;;;1.57;;
5813;SDS011;2933;52.302;8.134;2023-09-18T20:48:55;1.30;;;1.20;;
5813;SDS011;2933;52.302;8.134;2023-09-18T20:53:58;1.30;;;1.20;;
5813;SDS011;2933;52.302;8.134;2023-09-18T20:59:02;1.93;;;1.60;;
5813;SDS011;2933;52.302;8.134;2023-09-18T21:04:06;1.90;;;1.80;;
5813;SDS011;2933;52.302;8.134;2023-09-18T21:09:09;2.23;;;2.10;;
5813;SDS011;2933;52.302;8.134;2023-09-18T21:14:13;3.33;;;1.83;;
5813;SDS011;2933;52.302;8.134;2023-09-18T21:19:15;2.20;;;1.70;;
5813;SDS011;2933;52.302;8.134;2023-09-18T21:24:18;1.67;;;1.50;;
5813;SDS011;2933;52.302;8.134;2023-09-18T21:29:20;3.30;;;1.57;;
5813;SDS011;2933;52.302;8.134;2023-09-18T21:34:25;1.70;;;1.60;;
5813;SDS011;2933;52.302;8.134;2023-09-18T21:39:28;2.50;;;1.90;;
5813;SDS011;2933;52.302;8.134;2023-09-18T21:44:30;2.30;;;2.20;;
5813;SDS011;2933;52.302;8.134;2023-09-18T21:49:31;2.53;;;2.20;;
5813;SDS011;2933;52.302;8.134;2023-09-18T21:54:34;2.43;;;2.10;;
5813;SDS011;2933;52.302;8.134;2023-09-18T21:59:36;2.07;;;1.93;;
5813;SDS011;2933;52.302;8.134;2023-09-18T22:04:37;5.30;;;2.60;;
5813;SDS011;2933;52.302;8.134;2023-09-18T22:09:40;2.27;;;1.80;;
5813;SDS011;2933;52.302;8.134;2023-09-18T22:14:46;2.13;;;2.03;;
5813;SDS011;2933;52.302;8.134;2023-09-18T22:19:50;3.23;;;2.30;;
5813;SDS011;2933;52.302;8.134;2023-09-18T22:24:53;4.37;;;2.83;;
5813;SDS011;2933;52.302;8.134;2023-09-18T22:29:55;3.13;;;2.00;;
5813;SDS011;2933;52.302;8.134;2023-09-18T22:34:56;3.80;;;2.10;;
5813;SDS011;2933;52.302;8.134;2023-09-18T22:56:23;4.57;;;2.10;;
5813;SDS011;2933;52.302;8.134;2023-09-18T23:01:25;4.50;;;2.17;;
5813;SDS011;2933;52.302;8.134;2023-09-18T23:06:28;2.57;;;2.20;;
5813;SDS011;2933;52.302;8.134;2023-09-18T23:11:34;2.50;;;2.10;;
5813;SDS011;2933;52.302;8.134;2023-09-18T23:16:37;6.20;;;2.60;;
5813;SDS011;2933;52.302;8.134;2023-09-18T23:21:39;5.13;;;2.60;;
5813;SDS011;2933;52.302;8.134;2023-09-18T23:26:42;4.17;;;2.30;;
5813;SDS011;2933;52.302;8.134;2023-09-18T23:31:44;5.43;;;2.53;;
5813;SDS011;2933;52.302;8.134;2023-09-18T23:36:46;3.80;;;1.80;;
5813;SDS011;2933;52.302;8.134;2023-09-18T23:41:49;3.60;;;2.10;;
5813;SDS011;2933;52.302;8.134;2023-09-18T23:46:51;4.27;;;2.10;;
5813;SDS011;2933;52.302;8.134;2023-09-18T23:51:58;3.10;;;2.50;;
5813;SDS011;2933;52.302;8.134;2023-09-18T23:57:04;3.83;;;2.47;;
